sensor_id;sensor_type;location;lat;lon;timestamp;temperature;humidity
6879;DHT22;3478;51.462;7.338;2023-03-14T00:01:51;11.50;41.70
6879;DHT22;3478;51.462;7.338;2023-03-14T00:06:53;11.40;72.90
6879;DHT22;3478;51.462;7.338;2023-03-14T00:11:55;11.50;10.20
6879;DHT22;3478;51.462;7.338;2023-03-14T00:16:58;11.40;2.50
6879;DHT22;3478;51.462;7.338;2023-03-14T00:22:00;11.40;1.00
6879;DHT22;3478;51.462;7.338;2023-03-14T00:27:01;11.30;1.00
6879;DHT22;3478;51.462;7.338;2023-03-14T00:32:05;11.30;6.20
6879;DHT22;3478;51.462;7.338;2023-03-14T00:37:07;11.30;1.00
6879;DHT22;3478;51.462;7.338;2023-03-14T00:42:08;11.30;1.00
6879;DHT22;3478;51.462;7.338;2023-03-14T00:47:12;11.30;1.00
6879;DHT22;3478;51.462;7.338;2023-03-14T00:52:14;11.40;1.00
6879;DHT22;3478;51.462;7.338;2023-03-14T00:57:15;11.40;1.00
6879;DHT22;3478;51.462;7.338;2023-03-14T01:02:19;11.40;1.00
6879;DHT22;3478;51.462;7.338;2023-03-14T01:07:20;11.50;1.00
6879;DHT22;3478;51.462;7.338;2023-03-14T01:12:22;11.60;1.00
6879;DHT22;3478;51.462;7.338;2023-03-14T01:17:26;11.30;1.00
6879;DHT22;3478;51.462;7.338;2023-03-14T01:22:27;10.70;1.00
6879;DHT22;3478;51.462;7.338;2023-03-14T01:27:29;10.10;1.00
6879;DHT22;3478;51.462;7.338;2023-03-14T01:32:33;9.80;99.90
6879;DHT22;3478;51.462;7.338;2023-03-14T01:37:35;9.60;99.90
6879;DHT22;3478;51.462;7.338;2023-03-14T01:42:37;9.60;1.00
6879;DHT22;3478;51.462;7.338;2023-03-14T01:47:40;9.50;52.30
6879;DHT22;3478;51.462;7.338;2023-03-14T01:52:44;9.50;99.90
6879;DHT22;3478;51.462;7.338;2023-03-14T01:57:50;9.50;99.90
6879;DHT22;3478;51.462;7.338;2023-03-14T02:03:00;9.50;99.90
6879;DHT22;3478;51.462;7.338;2023-03-14T02:08:05;9.50;99.90
6879;DHT22;3478;51.462;7.338;2023-03-14T02:13:08;9.40;99.90
6879;DHT22;3478;51.462;7.338;2023-03-14T02:18:14;9.40;99.90
6879;DHT22;3478;51.462;7.338;2023-03-14T02:23:23;9.30;99.90
6879;DHT22;3478;51.462;7.338;2023-03-14T02:28:30;9.40;93.80
6879;DHT22;3478;51.462;7.338;2023-03-14T02:33:32;9.40;1.00
6879;DHT22;3478;51.462;7.338;2023-03-14T02:38:35;9.40;29.20
6879;DHT22;3478;51.462;7.338;2023-03-14T02:43:40;9.50;26.50
6879;DHT22;3478;51.462;7.338;2023-03-14T02:48:45;9.50;1.00
6879;DHT22;3478;51.462;7.338;2023-03-14T02:53:50;9.50;1.00
6879;DHT22;3478;51.462;7.338;2023-03-14T02:58:53;9.60;1.00
6879;DHT22;3478;51.462;7.338;2023-03-14T03:03:55;9.70;1.00
6879;DHT22;3478;51.462;7.338;2023-03-14T03:08:56;9.70;1.00
6879;DHT22;3478;51.462;7.338;2023-03-14T03:14:00;9.70;1.00
6879;DHT22;3478;51.462;7.338;2023-03-14T03:19:01;9.70;99.90
6879;DHT22;3478;51.462;7.338;2023-03-14T03:24:03;9.70;99.90
6879;DHT22;3478;51.462;7.338;2023-03-14T03:29:07;9.70;99.90
6879;DHT22;3478;51.462;7.338;2023-03-14T03:34:08;9.70;99.90
6879;DHT22;3478;51.462;7.338;2023-03-14T03:39:10;9.70;99.90
6879;DHT22;3478;51.462;7.338;2023-03-14T03:44:13;9.70;99.90
6879;DHT22;3478;51.462;7.338;2023-03-14T03:49:15;9.70;99.90
6879;DHT22;3478;51.462;7.338;2023-03-14T03:54:17;9.80;1.00
6879;DHT22;3478;51.462;7.338;2023-03-14T03:59:20;9.80;99.90
6879;DHT22;3478;51.462;7.338;2023-03-14T04:04:22;9.80;1.00
6879;DHT22;3478;51.462;7.338;2023-03-14T04:09:24;9.70;1.00
6879;DHT22;3478;51.462;7.338;2023-03-14T04:14:27;9.60;1.00
6879;DHT22;3478;51.462;7.338;2023-03-14T04:19:29;9.50;1.00
6879;DHT22;3478;51.462;7.338;2023-03-14T04:24:31;9.50;99.90
6879;DHT22;3478;51.462;7.338;2023-03-14T04:29:34;9.40;99.90
6879;DHT22;3478;51.462;7.338;2023-03-14T04:34:36;9.30;69.50
6879;DHT22;3478;51.462;7.338;2023-03-14T04:39:38;9.30;1.00
6879;DHT22;3478;51.462;7.338;2023-03-14T04:44:41;9.20;26.40
6879;DHT22;3478;51.462;7.338;2023-03-14T04:49:44;9.10;99.90
6879;DHT22;3478;51.462;7.338;2023-03-14T04:54:45;9.00;99.90
6879;DHT22;3478;51.462;7.338;2023-03-14T04:59:48;9.00;99.90
6879;DHT22;3478;51.462;7.338;2023-03-14T05:04:50;8.90;99.90
6879;DHT22;3478;51.462;7.338;2023-03-14T05:09:52;8.90;99.90
6879;DHT22;3478;51.462;7.338;2023-03-14T05:14:55;8.90;99.90
6879;DHT22;3478;51.462;7.338;2023-03-14T05:19:57;8.70;99.90
6879;DHT22;3478;51.462;7.338;2023-03-14T05:24:59;8.50;99.90
6879;DHT22;3478;51.462;7.338;2023-03-14T05:30:02;8.40;99.90
6879;DHT22;3478;51.462;7.338;2023-03-14T05:35:05;8.30;99.90
6879;DHT22;3478;51.462;7.338;2023-03-14T05:40:07;8.30;99.90
6879;DHT22;3478;51.462;7.338;2023-03-14T05:45:11;8.30;99.90
6879;DHT22;3478;51.462;7.338;2023-03-14T05:50:13;8.40;99.90
6879;DHT22;3478;51.462;7.338;2023-03-14T05:55:15;8.40;99.90
6879;DHT22;3478;51.462;7.338;2023-03-14T06:00:19;8.50;99.90
6879;DHT22;3478;51.462;7.338;2023-03-14T06:05:21;8.60;99.90
6879;DHT22;3478;51.462;7.338;2023-03-14T06:10:23;8.70;99.90
6879;DHT22;3478;51.462;7.338;2023-03-14T06:15:26;8.80;99.90
6879;DHT22;3478;51.462;7.338;2023-03-14T06:20:28;8.90;99.90
6879;DHT22;3478;51.462;7.338;2023-03-14T06:25:30;9.00;99.90
6879;DHT22;3478;51.462;7.338;2023-03-14T06:30:33;9.00;99.90
6879;DHT22;3478;51.462;7.338;2023-03-14T06:35:35;9.00;99.90
6879;DHT22;3478;51.462;7.338;2023-03-14T06:40:37;9.10;99.90
6879;DHT22;3478;51.462;7.338;2023-03-14T06:45:40;9.10;99.90
6879;DHT22;3478;51.462;7.338;2023-03-14T06:50:42;9.10;99.90
6879;DHT22;3478;51.462;7.338;2023-03-14T06:55:44;9.20;99.90
6879;DHT22;3478;51.462;7.338;2023-03-14T07:00:48;9.20;99.90
6879;DHT22;3478;51.462;7.338;2023-03-14T07:05:50;9.20;99.90
6879;DHT22;3478;51.462;7.338;2023-03-14T07:10:51;9.20;99.90
6879;DHT22;3478;51.462;7.338;2023-03-14T07:15:55;9.30;99.90
6879;DHT22;3478;51.462;7.338;2023-03-14T07:20:56;9.40;99.90
6879;DHT22;3478;51.462;7.338;2023-03-14T07:25:58;9.40;99.90
6879;DHT22;3478;51.462;7.338;2023-03-14T07:31:01;9.30;99.90
6879;DHT22;3478;51.462;7.338;2023-03-14T07:36:04;9.40;99.90
6879;DHT22;3478;51.462;7.338;2023-03-14T07:41:06;9.40;99.90
6879;DHT22;3478;51.462;7.338;2023-03-14T07:46:09;9.50;99.90
6879;DHT22;3478;51.462;7.338;2023-03-14T07:51:11;9.60;99.90
6879;DHT22;3478;51.462;7.338;2023-03-14T07:56:13;9.60;99.90
6879;DHT22;3478;51.462;7.338;2023-03-14T08:01:16;9.70;99.90
6879;DHT22;3478;51.462;7.338;2023-03-14T08:06:18;9.70;99.90
6879;DHT22;3478;51.462;7.338;2023-03-14T08:11:20;9.80;99.90
6879;DHT22;3478;51.462;7.338;2023-03-14T08:16:23;9.70;99.90
6879;DHT22;3478;51.462;7.338;2023-03-14T08:21:25;9.60;99.90
6879;DHT22;3478;51.462;7.338;2023-03-14T08:26:26;9.70;99.90
6879;DHT22;3478;51.462;7.338;2023-03-14T08:31:30;9.80;99.90
6879;DHT22;3478;51.462;7.338;2023-03-14T08:36:32;9.80;99.90
6879;DHT22;3478;51.462;7.338;2023-03-14T08:41:34;9.80;99.90
6879;DHT22;3478;51.462;7.338;2023-03-14T08:46:41;9.80;99.90
6879;DHT22;3478;51.462;7.338;2023-03-14T08:51:43;10.00;99.90
6879;DHT22;3478;51.462;7.338;2023-03-14T08:56:45;10.00;99.90
6879;DHT22;3478;51.462;7.338;2023-03-14T09:01:48;10.20;99.90
6879;DHT22;3478;51.462;7.338;2023-03-14T09:06:50;10.20;99.90
6879;DHT22;3478;51.462;7.338;2023-03-14T09:11:52;10.20;99.90
6879;DHT22;3478;51.462;7.338;2023-03-14T09:16:55;10.20;99.90
6879;DHT22;3478;51.462;7.338;2023-03-14T09:21:57;10.10;99.90
6879;DHT22;3478;51.462;7.338;2023-03-14T09:26:59;10.20;99.90
6879;DHT22;3478;51.462;7.338;2023-03-14T09:32:02;10.20;99.90
6879;DHT22;3478;51.462;7.338;2023-03-14T09:37:04;10.00;99.90
6879;DHT22;3478;51.462;7.338;2023-03-14T09:42:10;9.80;99.90
6879;DHT22;3478;51.462;7.338;2023-03-14T09:47:15;9.60;99.90
6879;DHT22;3478;51.462;7.338;2023-03-14T09:52:23;9.50;99.90
6879;DHT22;3478;51.462;7.338;2023-03-14T09:57:27;9.20;99.90
6879;DHT22;3478;51.462;7.338;2023-03-14T10:02:34;8.80;99.90
6879;DHT22;3478;51.462;7.338;2023-03-14T10:07:36;8.50;99.90
6879;DHT22;3478;51.462;7.338;2023-03-14T10:12:39;8.40;99.90
6879;DHT22;3478;51.462;7.338;2023-03-14T10:17:47;8.30;99.90
6879;DHT22;3478;51.462;7.338;2023-03-14T10:22:51;8.30;99.90
6879;DHT22;3478;51.462;7.338;2023-03-14T10:27:53;8.20;99.90
6879;DHT22;3478;51.462;7.338;2023-03-14T10:32:56;8.20;99.90
6879;DHT22;3478;51.462;7.338;2023-03-14T10:38:00;8.10;99.90
6879;DHT22;3478;51.462;7.338;2023-03-14T10:43:05;8.30;99.90
6879;DHT22;3478;51.462;7.338;2023-03-14T10:48:19;8.20;99.90
6879;DHT22;3478;51.462;7.338;2023-03-14T10:53:22;7.90;99.90
6879;DHT22;3478;51.462;7.338;2023-03-14T10:58:25;7.90;99.90
6879;DHT22;3478;51.462;7.338;2023-03-14T11:03:31;7.70;99.90
6879;DHT22;3478;51.462;7.338;2023-03-14T11:08:37;7.70;99.90
6879;DHT22;3478;51.462;7.338;2023-03-14T11:13:48;7.60;99.90
6879;DHT22;3478;51.462;7.338;2023-03-14T11:19:06;7.50;99.90
6879;DHT22;3478;51.462;7.338;2023-03-14T11:24:22;7.20;99.90
6879;DHT22;3478;51.462;7.338;2023-03-14T11:29:29;7.20;99.90
6879;DHT22;3478;51.462;7.338;2023-03-14T11:34:39;7.30;99.90
6879;DHT22;3478;51.462;7.338;2023-03-14T11:39:46;7.30;99.90
6879;DHT22;3478;51.462;7.338;2023-03-14T11:44:50;7.20;99.90
6879;DHT22;3478;51.462;7.338;2023-03-14T11:49:59;7.70;99.90
6879;DHT22;3478;51.462;7.338;2023-03-14T11:55:11;7.70;11.60
6879;DHT22;3478;51.462;7.338;2023-03-14T12:00:16;7.30;1.00
6879;DHT22;3478;51.462;7.338;2023-03-14T12:05:42;7.10;1.00
6879;DHT22;3478;51.462;7.338;2023-03-14T12:10:49;7.00;1.00
6879;DHT22;3478;51.462;7.338;2023-03-14T12:15:56;7.20;2.40
6879;DHT22;3478;51.462;7.338;2023-03-14T12:21:02;7.10;1.00
6879;DHT22;3478;51.462;7.338;2023-03-14T12:26:15;7.30;1.00
6879;DHT22;3478;51.462;7.338;2023-03-14T12:31:37;7.10;1.00
6879;DHT22;3478;51.462;7.338;2023-03-14T12:36:54;7.00;1.00
6879;DHT22;3478;51.462;7.338;2023-03-14T12:42:02;7.10;1.00
6879;DHT22;3478;51.462;7.338;2023-03-14T12:52:45;7.50;1.00
6879;DHT22;3478;51.462;7.338;2023-03-14T12:57:55;7.70;1.00
6879;DHT22;3478;51.462;7.338;2023-03-14T13:03:13;7.60;1.00
6879;DHT22;3478;51.462;7.338;2023-03-14T13:08:34;7.60;1.00
6879;DHT22;3478;51.462;7.338;2023-03-14T13:13:41;7.50;1.00
6879;DHT22;3478;51.462;7.338;2023-03-14T13:18:45;7.20;1.00
6879;DHT22;3478;51.462;7.338;2023-03-14T13:23:57;6.70;1.00
6879;DHT22;3478;51.462;7.338;2023-03-14T13:28:59;6.60;22.90
6879;DHT22;3478;51.462;7.338;2023-03-14T13:34:04;6.60;42.90
6879;DHT22;3478;51.462;7.338;2023-03-14T13:39:12;6.50;4.30
6879;DHT22;3478;51.462;7.338;2023-03-14T13:44:17;6.50;1.00
6879;DHT22;3478;51.462;7.338;2023-03-14T13:49:22;6.60;1.00
6879;DHT22;3478;51.462;7.338;2023-03-14T13:54:27;6.40;1.00
6879;DHT22;3478;51.462;7.338;2023-03-14T13:59:30;6.20;1.00
6879;DHT22;3478;51.462;7.338;2023-03-14T14:04:33;6.30;15.40
6879;DHT22;3478;51.462;7.338;2023-03-14T14:09:41;6.60;42.10
6879;DHT22;3478;51.462;7.338;2023-03-14T14:14:46;7.10;20.20
6879;DHT22;3478;51.462;7.338;2023-03-14T14:19:49;9.00;1.00
6879;DHT22;3478;51.462;7.338;2023-03-14T14:24:53;9.40;1.00
6879;DHT22;3478;51.462;7.338;2023-03-14T14:30:00;9.10;1.00
6879;DHT22;3478;51.462;7.338;2023-03-14T14:35:03;9.70;1.00
6879;DHT22;3478;51.462;7.338;2023-03-14T14:40:13;9.60;1.00
6879;DHT22;3478;51.462;7.338;2023-03-14T14:45:19;10.50;99.90
6879;DHT22;3478;51.462;7.338;2023-03-14T14:50:28;12.30;1.00
6879;DHT22;3478;51.462;7.338;2023-03-14T14:55:34;13.50;1.00
6879;DHT22;3478;51.462;7.338;2023-03-14T15:00:40;14.80;99.90
6879;DHT22;3478;51.462;7.338;2023-03-14T15:05:42;15.70;1.00
6879;DHT22;3478;51.462;7.338;2023-03-14T15:10:45;15.80;99.90
6879;DHT22;3478;51.462;7.338;2023-03-14T15:15:49;17.30;99.90
6879;DHT22;3478;51.462;7.338;2023-03-14T15:20:56;16.90;99.90
6879;DHT22;3478;51.462;7.338;2023-03-14T15:25:59;15.40;99.90
6879;DHT22;3478;51.462;7.338;2023-03-14T15:31:01;14.20;99.90
6879;DHT22;3478;51.462;7.338;2023-03-14T15:36:13;13.70;99.90
6879;DHT22;3478;51.462;7.338;2023-03-14T15:41:20;12.10;99.90
6879;DHT22;3478;51.462;7.338;2023-03-14T15:46:22;10.80;99.90
6879;DHT22;3478;51.462;7.338;2023-03-14T15:51:24;10.80;99.90
6879;DHT22;3478;51.462;7.338;2023-03-14T15:56:28;10.60;99.90
6879;DHT22;3478;51.462;7.338;2023-03-14T16:01:31;9.90;99.90
6879;DHT22;3478;51.462;7.338;2023-03-14T16:06:33;9.20;99.90
6879;DHT22;3478;51.462;7.338;2023-03-14T16:11:37;8.40;99.90
6879;DHT22;3478;51.462;7.338;2023-03-14T16:16:39;7.90;99.90
6879;DHT22;3478;51.462;7.338;2023-03-14T16:21:40;7.60;99.90
6879;DHT22;3478;51.462;7.338;2023-03-14T16:26:44;7.50;99.90
6879;DHT22;3478;51.462;7.338;2023-03-14T16:31:46;7.50;99.90
6879;DHT22;3478;51.462;7.338;2023-03-14T16:36:48;7.50;99.90
6879;DHT22;3478;51.462;7.338;2023-03-14T16:41:52;7.50;99.90
6879;DHT22;3478;51.462;7.338;2023-03-14T16:46:54;7.20;99.90
6879;DHT22;3478;51.462;7.338;2023-03-14T16:51:56;7.10;99.90
6879;DHT22;3478;51.462;7.338;2023-03-14T16:56:59;6.80;99.90
6879;DHT22;3478;51.462;7.338;2023-03-14T17:02:01;6.60;99.90
6879;DHT22;3478;51.462;7.338;2023-03-14T17:07:03;6.60;99.90
6879;DHT22;3478;51.462;7.338;2023-03-14T17:12:07;6.50;99.90
6879;DHT22;3478;51.462;7.338;2023-03-14T17:17:09;6.50;99.90
6879;DHT22;3478;51.462;7.338;2023-03-14T17:22:11;6.50;99.90
6879;DHT22;3478;51.462;7.338;2023-03-14T17:27:14;6.50;99.90
6879;DHT22;3478;51.462;7.338;2023-03-14T17:32:19;6.40;99.90
6879;DHT22;3478;51.462;7.338;2023-03-14T17:37:21;6.30;99.90
6879;DHT22;3478;51.462;7.338;2023-03-14T17:42:24;6.30;99.90
6879;DHT22;3478;51.462;7.338;2023-03-14T17:47:26;6.10;99.90
6879;DHT22;3478;51.462;7.338;2023-03-14T17:52:28;6.00;99.90
6879;DHT22;3478;51.462;7.338;2023-03-14T17:57:31;6.00;99.90
6879;DHT22;3478;51.462;7.338;2023-03-14T18:02:33;6.00;99.90
6879;DHT22;3478;51.462;7.338;2023-03-14T18:07:36;5.90;99.90
6879;DHT22;3478;51.462;7.338;2023-03-14T18:12:40;5.80;99.90
6879;DHT22;3478;51.462;7.338;2023-03-14T18:17:41;5.80;99.90
6879;DHT22;3478;51.462;7.338;2023-03-14T18:22:43;5.70;99.90
6879;DHT22;3478;51.462;7.338;2023-03-14T18:27:47;5.70;99.90
6879;DHT22;3478;51.462;7.338;2023-03-14T18:32:48;5.70;99.90
6879;DHT22;3478;51.462;7.338;2023-03-14T18:37:50;5.70;99.90
6879;DHT22;3478;51.462;7.338;2023-03-14T18:42:54;5.60;99.90
6879;DHT22;3478;51.462;7.338;2023-03-14T18:47:56;5.60;99.90
6879;DHT22;3478;51.462;7.338;2023-03-14T18:52:58;5.50;99.90
6879;DHT22;3478;51.462;7.338;2023-03-14T18:58:02;5.60;1.00
6879;DHT22;3478;51.462;7.338;2023-03-14T19:03:04;5.50;1.00
6879;DHT22;3478;51.462;7.338;2023-03-14T19:08:06;5.50;1.00
6879;DHT22;3478;51.462;7.338;2023-03-14T19:13:09;5.40;1.00
6879;DHT22;3478;51.462;7.338;2023-03-14T19:18:11;5.40;1.00
6879;DHT22;3478;51.462;7.338;2023-03-14T19:23:13;5.40;1.00
6879;DHT22;3478;51.462;7.338;2023-03-14T19:28:16;5.40;1.00
6879;DHT22;3478;51.462;7.338;2023-03-14T19:33:18;5.30;1.00
6879;DHT22;3478;51.462;7.338;2023-03-14T19:38:20;5.30;1.00
6879;DHT22;3478;51.462;7.338;2023-03-14T19:43:23;5.30;1.00
6879;DHT22;3478;51.462;7.338;2023-03-14T19:48:25;5.30;1.00
6879;DHT22;3478;51.462;7.338;2023-03-14T19:53:29;5.20;1.00
6879;DHT22;3478;51.462;7.338;2023-03-14T19:58:33;5.20;1.00
6879;DHT22;3478;51.462;7.338;2023-03-14T20:03:35;5.20;1.00
6879;DHT22;3478;51.462;7.338;2023-03-14T20:08:37;5.20;1.00
6879;DHT22;3478;51.462;7.338;2023-03-14T20:13:41;5.20;1.00
6879;DHT22;3478;51.462;7.338;2023-03-14T20:18:44;5.10;1.00
6879;DHT22;3478;51.462;7.338;2023-03-14T20:23:45;5.00;1.00
6879;DHT22;3478;51.462;7.338;2023-03-14T20:28:50;5.00;1.00
6879;DHT22;3478;51.462;7.338;2023-03-14T20:33:52;5.00;1.00
6879;DHT22;3478;51.462;7.338;2023-03-14T20:38:54;4.90;1.00
6879;DHT22;3478;51.462;7.338;2023-03-14T20:43:57;4.90;95.20
6879;DHT22;3478;51.462;7.338;2023-03-14T20:48:59;4.80;42.00
6879;DHT22;3478;51.462;7.338;2023-03-14T20:54:02;4.70;99.90
6879;DHT22;3478;51.462;7.338;2023-03-14T20:59:05;4.70;99.90
6879;DHT22;3478;51.462;7.338;2023-03-14T21:04:07;4.60;1.00
6879;DHT22;3478;51.462;7.338;2023-03-14T21:09:09;4.50;1.00
6879;DHT22;3478;51.462;7.338;2023-03-14T21:14:12;4.50;1.00
6879;DHT22;3478;51.462;7.338;2023-03-14T21:19:14;4.50;1.00
6879;DHT22;3478;51.462;7.338;2023-03-14T21:24:16;4.50;1.00
6879;DHT22;3478;51.462;7.338;2023-03-14T21:29:20;4.40;1.00
6879;DHT22;3478;51.462;7.338;2023-03-14T21:34:22;4.30;16.50
6879;DHT22;3478;51.462;7.338;2023-03-14T21:39:26;4.20;98.60
6879;DHT22;3478;51.462;7.338;2023-03-14T21:44:29;4.20;1.00
6879;DHT22;3478;51.462;7.338;2023-03-14T21:49:36;4.10;86.80
6879;DHT22;3478;51.462;7.338;2023-03-14T21:54:39;4.10;1.00
6879;DHT22;3478;51.462;7.338;2023-03-14T21:59:44;4.10;1.00
6879;DHT22;3478;51.462;7.338;2023-03-14T22:04:47;4.10;99.90
6879;DHT22;3478;51.462;7.338;2023-03-14T22:09:48;4.00;99.90
6879;DHT22;3478;51.462;7.338;2023-03-14T22:14:52;3.90;99.90
6879;DHT22;3478;51.462;7.338;2023-03-14T22:19:53;3.90;99.90
6879;DHT22;3478;51.462;7.338;2023-03-14T22:24:55;3.90;1.00
6879;DHT22;3478;51.462;7.338;2023-03-14T22:29:59;3.80;1.00
6879;DHT22;3478;51.462;7.338;2023-03-14T22:35:00;3.80;1.00
6879;DHT22;3478;51.462;7.338;2023-03-14T22:40:03;3.70;1.00
6879;DHT22;3478;51.462;7.338;2023-03-14T22:45:07;3.60;1.00
6879;DHT22;3478;51.462;7.338;2023-03-14T22:50:10;3.70;99.90
6879;DHT22;3478;51.462;7.338;2023-03-14T22:55:12;3.80;1.00
6879;DHT22;3478;51.462;7.338;2023-03-14T23:00:15;3.80;1.00
6879;DHT22;3478;51.462;7.338;2023-03-14T23:05:17;3.80;1.00
6879;DHT22;3478;51.462;7.338;2023-03-14T23:10:19;3.90;99.90
6879;DHT22;3478;51.462;7.338;2023-03-14T23:15:22;3.90;1.00
6879;DHT22;3478;51.462;7.338;2023-03-14T23:20:25;4.00;1.00
6879;DHT22;3478;51.462;7.338;2023-03-14T23:25:27;4.00;81.80
6879;DHT22;3478;51.462;7.338;2023-03-14T23:30:30;4.00;99.90
6879;DHT22;3478;51.462;7.338;2023-03-14T23:35:32;4.10;1.00
6879;DHT22;3478;51.462;7.338;2023-03-14T23:40:34;4.20;1.00
6879;DHT22;3478;51.462;7.338;2023-03-14T23:45:37;4.20;1.00
6879;DHT22;3478;51.462;7.338;2023-03-14T23:50:39;4.20;1.00
6879;DHT22;3478;51.462;7.338;2023-03-14T23:55:41;4.30;1.00
